Time;durP1;ratioP1;P1;durP2;ratioP2;P2;SDS_P1;SDS_P2;PMS_P1;PMS_P2;Temp;Humidity;BMP_temperature;BMP_pressure;BME280_temperature;BME280_humidity;BME280_pressure;Samples;Min_cycle;Max_cycle;Signal;HPM_P1;HPM_P2
2023/04/24 00:00:15;;;;;;;;;6.33;5.00;;;;;-146.37;100.00;59337.28;5040083;28;8844;-82
2023/04/24 00:02:44;;;;;;;;;2.00;2.00;;;;;-146.37;100.00;59337.28;5041496;28;8813;-82
2023/04/24 00:05:10;;;;;;;;;5.00;5.00;;;;;-146.37;100.00;59337.28;5038987;28;8809;-82
2023/04/24 00:07:35;;;;;;;;;5.67;4.33;;;;;-146.37;100.00;59337.28;5041902;28;8789;-82
2023/04/24 00:10:01;;;;;;;;;7.67;5.00;;;;;-146.37;100.00;59337.28;5042417;28;8862;-82
2023/04/24 00:12:26;;;;;;;;;4.67;3.67;;;;;-146.37;100.00;59337.28;5040017;28;8833;-82
2023/04/24 00:14:52;;;;;;;;;4.33;4.33;;;;;-146.37;100.00;59337.28;5040880;28;8754;-82
2023/04/24 00:17:21;;;;;;;;;4.75;4.75;;;;;-146.37;100.00;59337.28;5038247;28;9568;-81
2023/04/24 00:19:47;;;;;;;;;4.75;4.00;;;;;-146.37;100.00;59337.28;5056168;28;8844;-82
2023/04/24 00:22:14;;;;;;;;;6.75;4.00;;;;;-146.37;100.00;59337.28;5040237;28;8742;-82
2023/04/24 00:24:40;;;;;;;;;7.25;6.50;;;;;-146.37;100.00;59337.28;5038846;28;8746;-82
2023/04/24 00:27:05;;;;;;;;;2.33;2.33;;;;;-146.37;100.00;59337.28;5039060;28;8813;-82
2023/04/24 00:29:30;;;;;;;;;10.67;7.33;;;;;-146.37;100.00;59337.28;5037370;28;9273;-82
2023/04/24 00:31:56;;;;;;;;;3.67;3.67;;;;;-146.37;100.00;59337.28;5038611;28;8865;-82
2023/04/24 00:34:22;;;;;;;;;8.00;7.00;;;;;-146.37;100.00;59337.28;5040725;28;8793;-82
2023/04/24 00:37:18;;;;;;;;;4.00;4.00;;;;;-146.37;100.00;59337.28;5056158;28;9583;-81
2023/04/24 00:39:44;;;;;;;;;4.00;4.00;;;;;-146.37;100.00;59337.28;5040787;28;8938;-82
2023/04/24 00:42:09;;;;;;;;;7.00;7.00;;;;;-146.37;100.00;59337.28;5041114;28;8837;-82
2023/04/24 00:44:35;;;;;;;;;4.00;4.00;;;;;-146.37;100.00;59337.28;5041423;28;9610;-82
2023/04/24 00:47:01;;;;;;;;;4.00;4.00;;;;;-146.37;100.00;59337.28;5039347;28;8817;-82
2023/04/24 00:49:26;;;;;;;;;3.00;3.00;;;;;-146.37;100.00;59337.28;5038594;28;8932;-82
2023/04/24 00:51:53;;;;;;;;;5.00;4.00;;;;;-146.37;100.00;59337.28;5040481;28;8782;-82
2023/04/24 00:54:19;;;;;;;;;5.25;4.00;;;;;-146.37;100.00;59337.28;5037181;28;8867;-82
2023/04/24 00:56:45;;;;;;;;;7.25;5.00;;;;;-146.37;100.00;59337.28;5037164;28;8805;-83
2023/04/24 00:59:12;;;;;;;;;4.67;3.33;;;;;-146.37;100.00;59337.28;5038717;28;8821;-82
2023/04/24 01:01:41;;;;;;;;;5.75;4.75;;;;;-146.37;100.00;59337.28;5041896;28;8798;-83
2023/04/24 01:04:09;;;;;;;;;3.75;3.75;;;;;-146.37;100.00;59337.28;5037944;28;8804;-82
2023/04/24 01:06:38;;;;;;;;;4.00;3.50;;;;;-146.37;100.00;59337.28;5038187;28;9595;-82
2023/04/24 01:09:03;;;;;;;;;7.00;5.00;;;;;-146.37;100.00;59337.28;5038977;28;8760;-82
2023/04/24 01:11:29;;;;;;;;;4.00;4.00;;;;;-146.37;100.00;59337.28;5037780;28;8853;-82
2023/04/24 01:13:56;;;;;;;;;6.67;4.33;;;;;-146.37;100.00;59337.28;5036876;28;8821;-82
2023/04/24 01:16:22;;;;;;;;;6.75;4.75;;;;;-146.37;100.00;59337.28;5040103;28;8845;-82
2023/04/24 01:18:48;;;;;;;;;5.33;4.00;;;;;-146.37;100.00;59337.28;5037648;28;8820;-81
2023/04/24 01:21:16;;;;;;;;;5.33;2.67;;;;;-146.37;100.00;59337.28;5038908;28;8905;-81
2023/04/24 01:23:47;;;;;;;;;5.00;5.00;;;;;-146.37;100.00;59337.28;5038369;28;9230;-82
2023/04/24 01:26:17;;;;;;;;;4.25;4.25;;;;;-146.37;100.00;59337.28;5054611;28;9632;-82
2023/04/24 01:28:42;;;;;;;;;5.25;3.75;;;;;-146.37;100.00;59337.28;5037675;28;8826;-81
2023/04/24 01:31:08;;;;;;;;;1.67;1.67;;;;;-146.37;100.00;59337.28;5042883;28;8817;-82
2023/04/24 01:33:33;;;;;;;;;4.67;3.00;;;;;-146.37;100.00;59337.28;5038887;28;8825;-82
2023/04/24 01:36:07;;;;;;;;;5.67;4.00;;;;;-146.37;100.00;59337.28;5035698;28;8841;-82
2023/04/24 01:38:32;;;;;;;;;3.25;3.00;;;;;-146.37;100.00;59337.28;5034907;28;9011;-82
2023/04/24 01:40:58;;;;;;;;;6.67;4.00;;;;;16.89;100.00;100030.56;5019238;28;28508;-82
2023/04/24 01:43:24;;;;;;;;;6.00;2.67;;;;;16.98;100.00;100033.00;5019373;28;29028;-82
2023/04/24 01:45:49;;;;;;;;;5.67;5.67;;;;;16.95;100.00;100033.97;5002453;28;27857;-82
2023/04/24 01:48:14;;;;;;;;;5.67;4.33;;;;;16.99;100.00;100041.03;5000971;28;30451;-82
2023/04/24 01:50:40;;;;;;;;;3.00;3.00;;;;;16.97;100.00;100037.50;5020462;28;28447;-83
2023/04/24 01:53:05;;;;;;;;;3.00;3.00;;;;;17.00;100.00;100032.03;4998742;28;28561;-82
2023/04/24 01:55:31;;;;;;;;;4.00;3.00;;;;;17.07;100.00;100022.06;4983258;28;27881;-82
2023/04/24 01:57:57;;;;;;;;;2.33;2.33;;;;;16.93;100.00;100037.63;4984104;28;30000;-82
2023/04/24 02:00:24;;;;;;;;;4.00;3.00;;;;;16.92;100.00;100036.72;5001760;28;28637;-82
2023/04/24 02:02:49;;;;;;;;;4.00;2.00;;;;;16.90;100.00;100048.44;5002632;28;28559;-82
2023/04/24 02:05:15;;;;;;;;;3.00;2.00;;;;;16.88;100.00;100048.44;4985642;28;28594;-82
2023/04/24 02:08:19;;;;;;;;;2.00;2.00;;;;;17.63;100.00;100043.03;4987732;28;29643;-83
2023/04/24 02:10:45;;;;;;;;;3.33;3.33;;;;;16.88;100.00;100050.25;5004954;28;28644;-82
2023/04/24 02:13:10;;;;;;;;;7.33;4.00;;;;;16.92;100.00;100060.00;5001725;28;28533;-82
2023/04/24 02:15:35;;;;;;;;;5.00;5.00;;;;;16.86;100.00;100044.91;5002304;28;27905;-82
2023/04/24 02:18:01;;;;;;;;;3.33;3.33;;;;;16.89;100.00;100054.72;4983574;28;30970;-82
2023/04/24 02:20:26;;;;;;;;;2.00;2.00;;;;;16.87;100.00;100054.75;4984773;28;28665;-82
2023/04/24 02:22:52;;;;;;;;;4.00;4.00;;;;;16.91;100.00;100056.47;4982977;28;28542;-82
2023/04/24 02:25:17;;;;;;;;;2.00;0.33;;;;;16.90;100.00;100056.47;5000546;28;28613;-83
2023/04/24 02:27:42;;;;;;;;;2.33;2.33;;;;;16.90;100.00;100067.22;4999186;28;28563;-83
2023/04/24 02:30:08;;;;;;;;;3.00;3.00;;;;;16.94;100.00;100059.06;4982331;28;29053;-83
2023/04/24 02:32:34;;;;;;;;;3.00;3.00;;;;;16.87;100.00;100062.81;4983310;28;27874;-82
2023/04/24 02:34:59;;;;;;;;;4.00;4.00;;;;;16.93;100.00;100061.81;4983942;28;27860;-83
2023/04/24 02:37:25;;;;;;;;;5.33;3.00;;;;;16.97;100.00;100067.06;4983120;28;29709;-82
2023/04/24 02:39:50;;;;;;;;;5.33;4.00;;;;;16.95;100.00;100073.41;4983903;28;28726;-82
2023/04/24 02:42:15;;;;;;;;;3.67;3.00;;;;;16.95;100.00;100078.75;4983534;28;28821;-82
2023/04/24 02:44:41;;;;;;;;;3.00;3.00;;;;;16.96;100.00;100075.16;4999912;28;28471;-82
2023/04/24 02:47:07;;;;;;;;;3.00;3.00;;;;;16.96;100.00;100076.03;5001789;28;28403;-82
2023/04/24 02:49:32;;;;;;;;;3.67;2.33;;;;;16.88;100.00;100069.06;4981192;28;28954;-82
2023/04/24 02:51:58;;;;;;;;;3.67;3.67;;;;;16.85;100.00;100072.72;4999044;28;27968;-82
2023/04/24 02:54:23;;;;;;;;;3.33;3.00;;;;;16.93;100.00;100076.09;4982214;28;28653;-81
2023/04/24 02:56:48;;;;;;;;;3.33;3.33;;;;;16.91;100.00;100069.88;4981557;28;29798;-82
2023/04/24 02:59:14;;;;;;;;;3.33;3.33;;;;;17.00;100.00;100083.09;4980381;28;28777;-82
2023/04/24 03:01:39;;;;;;;;;3.00;3.00;;;;;17.05;100.00;100083.00;4980974;28;28455;-82
2023/04/24 03:04:05;;;;;;;;;2.33;2.33;;;;;17.01;100.00;100084.00;4997963;28;28541;-82
2023/04/24 03:06:32;;;;;;;;;2.33;2.00;;;;;17.36;100.00;100088.53;5000934;28;28583;-82
2023/04/24 03:08:58;;;;;;;;;4.00;4.00;;;;;17.02;100.00;100084.88;4983394;28;28663;-82
2023/04/24 03:11:23;;;;;;;;;3.00;3.00;;;;;17.05;100.00;100090.16;5002327;28;28439;-82
2023/04/24 03:13:48;;;;;;;;;2.00;2.00;;;;;16.99;100.00;100085.84;5001824;28;28545;-82
2023/04/24 03:16:14;;;;;;;;;3.67;3.67;;;;;17.02;100.00;100103.69;4984361;28;30220;-82
2023/04/24 03:18:39;;;;;;;;;5.67;5.67;;;;;16.98;100.00;100100.16;4985649;28;28709;-82
2023/04/24 03:21:05;;;;;;;;;3.33;3.00;;;;;17.00;100.00;100099.19;4982685;28;28547;-81
2023/04/24 03:23:30;;;;;;;;;3.00;3.00;;;;;17.03;100.00;100100.97;5000411;28;28546;-82
2023/04/24 03:25:56;;;;;;;;;3.00;3.00;;;;;16.97;100.00;100095.72;5000460;28;29382;-82
2023/04/24 03:28:21;;;;;;;;;1.67;1.67;;;;;17.03;100.00;100089.31;4984363;28;29851;-82
2023/04/24 03:30:46;;;;;;;;;4.67;3.00;;;;;17.04;100.00;100107.22;5002620;28;28436;-81
2023/04/24 03:33:12;;;;;;;;;4.00;3.33;;;;;16.97;100.00;100085.88;4984915;28;28549;-82
2023/04/24 03:35:37;;;;;;;;;4.00;4.00;;;;;16.97;100.00;100093.91;4983285;28;29878;-82
2023/04/24 03:38:04;;;;;;;;;3.00;3.00;;;;;16.95;100.00;100101.13;4996418;28;29435;-82
2023/04/24 03:40:29;;;;;;;;;2.75;1.50;;;;;16.86;100.00;100098.63;5003905;28;29004;-82
2023/04/24 03:42:55;;;;;;;;;8.67;4.00;;;;;16.86;100.00;100103.13;5003514;28;28495;-82
2023/04/24 03:45:20;;;;;;;;;4.00;4.00;;;;;16.88;100.00;100103.97;5002436;28;29924;-83
2023/04/24 03:47:46;;;;;;;;;2.00;2.00;;;;;16.78;100.00;100116.69;5001421;28;28474;-82
2023/04/24 03:50:11;;;;;;;;;4.00;4.00;;;;;16.78;100.00;100108.63;5021012;28;28461;-82
2023/04/24 03:52:36;;;;;;;;;3.00;3.00;;;;;16.75;100.00;100123.00;4998596;28;27947;-82
2023/04/24 03:55:02;;;;;;;;;4.00;4.00;;;;;16.69;100.00;100111.53;5001446;28;29367;-82
2023/04/24 03:57:27;;;;;;;;;4.67;4.00;;;;;16.59;100.00;100116.19;4983281;28;29071;-81
2023/04/24 03:59:53;;;;;;;;;3.00;3.00;;;;;16.60;100.00;100113.50;5001202;28;28666;-81
2023/04/24 04:02:19;;;;;;;;;2.33;2.33;;;;;16.60;100.00;100129.59;4983265;28;28564;-81
2023/04/24 04:04:44;;;;;;;;;2.67;2.67;;;;;16.50;100.00;100138.75;5001797;28;29115;-81
2023/04/24 04:07:11;;;;;;;;;4.00;4.00;;;;;16.53;100.00;100137.81;4983513;28;29602;-82
2023/04/24 04:09:36;;;;;;;;;6.67;6.67;;;;;16.48;100.00;100135.22;4982363;28;28479;-82
2023/04/24 04:12:02;;;;;;;;;4.67;3.67;;;;;16.49;100.00;100145.03;4983298;28;27914;-82
2023/04/24 04:14:28;;;;;;;;;4.67;3.33;;;;;16.85;100.00;100134.47;4984683;28;30772;-81
2023/04/24 04:16:53;;;;;;;;;3.00;3.00;;;;;16.51;100.00;100135.13;5001107;28;28889;-81
2023/04/24 04:19:19;;;;;;;;;4.00;4.00;;;;;16.67;100.00;100150.94;4985071;28;28843;-82
2023/04/24 04:21:45;;;;;;;;;6.67;4.67;;;;;16.67;100.00;100150.94;4984075;28;28057;-80
2023/04/24 04:24:11;;;;;;;;;4.00;4.00;;;;;16.56;100.00;100138.63;5002021;28;28322;-82
2023/04/24 04:26:37;;;;;;;;;3.00;3.00;;;;;16.59;100.00;100154.66;4984175;28;28621;-82
2023/04/24 04:29:03;;;;;;;;;9.00;7.00;;;;;16.71;100.00;100147.28;5002847;28;27952;-82
2023/04/24 04:31:30;;;;;;;;;7.33;4.33;;;;;16.76;100.00;100154.34;5001878;28;28416;-82
2023/04/24 04:33:55;;;;;;;;;4.00;4.00;;;;;16.68;100.00;100160.75;5002306;28;28507;-81
2023/04/24 04:39:42;;;;;;;;;6.00;4.67;;;;;16.63;100.00;100173.41;5000447;28;28713;-82
2023/04/24 04:42:07;;;;;;;;;5.00;5.00;;;;;16.70;100.00;100175.03;4983985;28;28454;-82
2023/04/24 04:44:35;;;;;;;;;5.33;4.67;;;;;16.68;100.00;100169.69;4982351;28;29873;-82
2023/04/24 04:47:03;;;;;;;;;7.00;5.33;;;;;16.68;100.00;100171.50;5000439;28;27863;-82
2023/04/24 04:49:29;;;;;;;;;6.33;4.00;;;;;16.70;100.00;100172.34;4982264;28;28482;-82
2023/04/24 04:51:55;;;;;;;;;4.67;4.00;;;;;16.84;100.00;100177.47;4999096;28;28621;-82
2023/04/24 04:54:20;;;;;;;;;4.67;3.00;;;;;16.75;100.00;100176.72;4999784;28;30022;-82
2023/04/24 04:56:46;;;;;;;;;4.00;4.00;;;;;16.81;100.00;100175.75;5000831;28;29826;-82
2023/04/24 04:59:12;;;;;;;;;5.00;4.00;;;;;16.83;100.00;100184.66;5000628;28;28539;-82
2023/04/24 05:01:37;;;;;;;;;8.00;5.67;;;;;16.83;100.00;100183.78;5003483;28;28558;-81
2023/04/24 05:04:03;;;;;;;;;5.67;5.00;;;;;16.82;100.00;100185.56;5002209;28;28774;-82
2023/04/24 05:06:28;;;;;;;;;6.33;4.67;;;;;16.87;100.00;100202.47;5000909;28;28453;-82
2023/04/24 05:08:56;;;;;;;;;6.67;6.67;;;;;16.84;100.00;100191.78;5002454;28;28436;-82
2023/04/24 05:11:22;;;;;;;;;5.67;5.33;;;;;16.82;100.00;100200.78;5000268;28;27980;-82
2023/04/24 05:13:48;;;;;;;;;4.00;4.00;;;;;16.79;100.00;100209.78;4999799;28;30044;-82
2023/04/24 05:16:13;;;;;;;;;5.33;5.33;;;;;16.79;100.00;100221.38;5002146;28;28971;-81
2023/04/24 05:18:39;;;;;;;;;4.67;4.67;;;;;16.79;100.00;100225.88;5001258;28;28570;-81
2023/04/24 05:21:04;;;;;;;;;8.00;6.33;;;;;16.75;100.00;100226.88;5001022;28;28512;-82
2023/04/24 05:23:30;;;;;;;;;9.00;7.33;;;;;16.70;100.00;100237.66;5001844;28;29024;-81
2023/04/24 05:25:56;;;;;;;;;7.00;4.00;;;;;16.73;100.00;100234.06;5002126;28;27944;-82
2023/04/24 05:28:21;;;;;;;;;5.00;5.00;;;;;16.55;100.00;100244.22;5000096;28;27944;-81
2023/04/24 05:30:47;;;;;;;;;7.67;5.33;;;;;16.62;100.00;100249.47;5002754;28;28541;-82
2023/04/24 05:33:13;;;;;;;;;7.00;5.67;;;;;16.65;100.00;100252.13;5006341;28;29676;-82
2023/04/24 05:35:45;;;;;;;;;7.00;7.00;;;;;16.87;100.00;100255.31;5001601;28;28347;-82
2023/04/24 05:38:11;;;;;;;;;7.00;7.00;;;;;16.79;100.00;100253.63;5000898;28;28540;-83
2023/04/24 05:40:36;;;;;;;;;9.67;9.67;;;;;16.74;100.00;100252.84;5001343;28;28606;-82
2023/04/24 05:43:02;;;;;;;;;11.33;7.00;;;;;16.82;100.00;100259.88;5001136;28;31074;-82
2023/04/24 05:45:27;;;;;;;;;12.67;8.33;;;;;16.92;100.00;100269.53;5001665;28;28703;-82
2023/04/24 05:47:53;;;;;;;;;10.00;9.00;;;;;16.97;100.00;100268.53;5006160;28;28553;-82
2023/04/24 05:50:18;;;;;;;;;6.33;4.00;;;;;17.03;100.00;100266.63;5018621;28;28627;-81
2023/04/24 05:52:44;;;;;;;;;9.00;7.00;;;;;17.14;100.00;100275.34;5001739;28;29865;-81
2023/04/24 05:55:09;;;;;;;;;8.67;8.00;;;;;17.16;100.00;100282.47;4985416;28;28793;-81
2023/04/24 05:57:35;;;;;;;;;9.33;8.00;;;;;17.27;100.00;100284.03;4986666;28;28812;-81
2023/04/24 06:00:00;;;;;;;;;7.67;5.67;;;;;17.36;100.00;100279.38;4984975;28;28781;-82
2023/04/24 06:02:27;;;;;;;;;8.00;8.00;;;;;17.42;100.00;100291.78;5003033;28;28503;-82
2023/04/24 06:04:52;;;;;;;;;9.33;9.33;;;;;17.43;100.00;100298.03;4985811;28;28729;-82
2023/04/24 06:07:18;;;;;;;;;10.00;6.33;;;;;17.49;100.00;100296.13;4983982;28;28490;-82
2023/04/24 06:09:43;;;;;;;;;14.33;10.67;;;;;17.46;100.00;100293.50;4981649;28;28603;-82
2023/04/24 06:12:09;;;;;;;;;7.67;6.00;;;;;17.39;100.00;100313.34;4981405;28;29985;-82
2023/04/24 06:14:34;;;;;;;;;10.67;8.00;;;;;17.37;100.00;100310.72;4983851;28;30011;-81
2023/04/24 06:17:01;;;;;;;;;11.00;9.33;;;;;17.78;100.00;100310.75;4983132;28;28594;-83
2023/04/24 06:19:26;;;;;;;;;9.67;9.67;;;;;17.39;100.00;100319.63;5002234;28;28788;-82
2023/04/24 06:21:52;;;;;;;;;9.67;9.67;;;;;17.47;100.00;100322.16;4982474;28;29753;-80
2023/04/24 06:24:17;;;;;;;;;10.33;9.33;;;;;17.51;100.00;100323.88;4985884;28;28566;-81
2023/04/24 06:26:42;;;;;;;;;13.33;8.00;;;;;17.51;100.00;100306.84;5004225;28;28498;-82
2023/04/24 06:29:09;;;;;;;;;10.33;9.67;;;;;18.03;100.00;100337.09;4988911;28;27942;-82
2023/04/24 06:31:36;;;;;;;;;11.67;10.00;;;;;17.53;100.00;100329.19;5003812;28;28215;-81
2023/04/24 06:34:03;;;;;;;;;9.00;9.00;;;;;17.70;100.00;100331.53;4986866;28;29789;-81
2023/04/24 06:36:28;;;;;;;;;13.33;11.67;;;;;17.85;100.00;100330.34;4986939;28;27825;-82
2023/04/24 06:38:57;;;;;;;;;10.00;10.00;;;;;18.24;100.00;100341.09;5004407;28;27954;-81
2023/04/24 06:41:23;;;;;;;;;13.00;11.33;;;;;18.70;100.00;100329.19;4986265;28;29858;-82
2023/04/24 06:43:49;;;;;;;;;12.00;8.67;;;;;18.56;100.00;100335.81;5004484;28;28412;-82
2023/04/24 06:46:14;;;;;;;;;12.00;9.33;;;;;18.75;100.00;100343.44;4987254;28;28536;-82
2023/04/24 06:48:40;;;;;;;;;11.67;9.67;;;;;18.78;100.00;100348.72;4988558;28;27926;-82
2023/04/24 06:51:06;;;;;;;;;10.00;9.00;;;;;18.83;100.00;100340.56;5004239;28;29136;-83
2023/04/24 06:53:31;;;;;;;;;14.00;13.33;;;;;18.89;100.00;100356.56;4985384;28;28602;-83
2023/04/24 06:55:56;;;;;;;;;12.33;11.00;;;;;18.86;100.00;100356.63;4985032;28;27979;-82
2023/04/24 06:58:22;;;;;;;;;16.67;13.33;;;;;18.88;100.00;100349.41;4986576;28;28464;-81
2023/04/24 07:00:47;;;;;;;;;12.00;12.00;;;;;18.97;100.00;100344.66;4985190;28;29729;-83
2023/04/24 07:03:12;;;;;;;;;14.00;11.67;;;;;18.99;100.00;100358.97;4988079;28;28854;-82
2023/04/24 07:05:38;;;;;;;;;16.00;14.67;;;;;19.05;100.00;100351.66;5007670;28;28579;-82
2023/04/24 07:08:03;;;;;;;;;10.33;10.00;;;;;19.08;100.00;100356.94;5009433;28;28509;-82
2023/04/24 07:10:30;;;;;;;;;11.00;10.00;;;;;19.52;100.00;100361.09;4990132;28;29826;-82
2023/04/24 07:13:03;;;;;;;;;12.00;10.33;;;;;19.76;100.00;100370.31;4992683;28;29092;-82
2023/04/24 07:15:28;;;;;;;;;12.33;12.33;;;;;19.12;100.00;100366.72;4992085;28;27969;-82
2023/04/24 07:17:54;;;;;;;;;12.33;12.00;;;;;19.14;100.00;100362.16;4991372;28;28599;-82
2023/04/24 07:20:19;;;;;;;;;12.67;10.33;;;;;19.15;100.00;100361.25;4991225;28;30186;-82
2023/04/24 07:22:45;;;;;;;;;13.33;11.67;;;;;19.16;100.00;100377.38;5004024;28;28859;-82
2023/04/24 07:25:13;;;;;;;;;15.00;13.67;;;;;19.62;100.00;100364.41;4994254;28;28628;-84
2023/04/24 07:27:39;;;;;;;;;14.67;13.67;;;;;19.11;100.00;100371.25;4996357;28;28320;-83
2023/04/24 07:30:08;;;;;;;;;14.33;13.00;;;;;19.64;100.00;100362.56;4997273;28;30127;-83
2023/04/24 07:32:34;;;;;;;;;11.67;11.67;;;;;19.21;100.00;100374.56;4997038;28;28657;-82
2023/04/24 07:35:05;;;;;;;;;11.33;10.33;;;;;19.74;100.00;100380.28;5000879;28;27829;-82
2023/04/24 07:37:37;;;;;;;;;13.33;13.33;;;;;19.24;100.00;100371.78;5012163;28;27977;-82
2023/04/24 07:40:03;;;;;;;;;15.00;12.00;;;;;19.35;100.00;100369.69;5006275;28;29776;-82
2023/04/24 07:42:30;;;;;;;;;15.00;12.67;;;;;19.51;100.00;100383.63;5011265;28;27819;-82
2023/04/24 07:44:56;;;;;;;;;13.00;13.00;;;;;19.40;100.00;100374.94;5013045;28;27918;-83
2023/04/24 07:47:22;;;;;;;;;15.33;15.00;;;;;19.43;100.00;100385.66;5007991;28;28758;-82
2023/04/24 07:49:47;;;;;;;;;14.00;14.00;;;;;19.31;100.00;100381.47;5012226;28;31042;-82
2023/04/24 07:52:13;;;;;;;;;19.33;16.67;;;;;19.32;100.00;100375.16;4999513;28;28695;-81
2023/04/24 07:54:39;;;;;;;;;12.00;12.00;;;;;19.46;100.00;100380.16;4999013;28;28428;-82
2023/04/24 07:57:06;;;;;;;;;13.67;13.67;;;;;19.04;100.00;100387.59;5007681;28;29433;-83
2023/04/24 07:59:31;;;;;;;;;17.33;15.33;;;;;19.04;100.00;100391.19;5002710;28;28549;-82
2023/04/24 08:02:01;;;;;;;;;19.33;14.00;;;;;19.13;100.00;100384.69;4984318;28;28764;-82
2023/04/24 08:04:30;;;;;;;;;19.67;16.00;;;;;19.53;100.00;100386.25;4991887;28;28938;-81
2023/04/24 08:06:55;;;;;;;;;17.33;13.33;;;;;19.18;100.00;100397.09;4989726;28;28532;-80
2023/04/24 08:09:20;;;;;;;;;10.67;10.67;;;;;19.32;100.00;100390.44;5006410;28;28656;-80
2023/04/24 08:11:46;;;;;;;;;15.67;15.67;;;;;19.46;100.00;100390.06;4985041;28;28353;-81
2023/04/24 08:14:13;;;;;;;;;16.00;14.67;;;;;19.76;100.00;100400.00;5006177;28;27969;-82
2023/04/24 08:16:45;;;;;;;;;19.33;17.00;;;;;20.36;100.00;100386.50;5008732;28;28507;-81
2023/04/24 08:19:33;;;;;;;;;14.00;12.33;;;;;20.66;100.00;100405.34;4987582;28;29772;-81
2023/04/24 08:21:58;;;;;;;;;14.67;14.67;;;;;20.21;100.00;100384.28;4996991;28;29860;-81
2023/04/24 08:24:24;;;;;;;;;18.67;18.00;;;;;20.49;100.00;100404.06;4987068;28;28996;-81
2023/04/24 08:26:57;;;;;;;;;23.00;18.33;;;;;21.10;100.00;100398.44;4989555;28;28697;-82
2023/04/24 08:29:23;;;;;;;;;15.33;15.33;;;;;20.69;100.00;100403.44;4986263;28;29929;-83
2023/04/24 08:31:49;;;;;;;;;18.67;16.33;;;;;20.53;100.00;100370.59;4989777;28;28630;-83
2023/04/24 08:34:14;;;;;;;;;18.67;18.67;;;;;20.68;100.00;100389.97;5006929;28;28549;-83
2023/04/24 08:36:43;;;;;;;;;20.67;17.00;;;;;21.28;100.00;100394.19;5005137;28;28377;-84
2023/04/24 08:39:27;;;;;;;;;18.67;15.67;;;;;20.86;100.00;100405.56;5004485;28;29865;-86
2023/04/24 08:41:53;;;;;;;;;24.67;20.00;;;;;20.58;100.00;100376.78;5002290;28;28269;-83
2023/04/24 08:44:19;;;;;;;;;15.00;15.00;;;;;20.88;100.00;100402.81;5005563;28;28350;-83
2023/04/24 08:46:55;;;;;;;;;19.67;17.67;;;;;20.68;100.00;100425.09;4995584;28;27925;-83
2023/04/24 08:49:29;;;;;;;;;17.33;16.33;;;;;21.07;100.00;100419.31;4993149;28;30131;-83
2023/04/24 08:51:55;;;;;;;;;16.67;15.00;;;;;20.81;100.00;100417.50;5004936;28;28048;-82
2023/04/24 08:54:21;;;;;;;;;25.67;19.67;;;;;21.04;100.00;100416.69;5020428;28;27866;-83
2023/04/24 08:56:48;;;;;;;;;18.33;18.33;;;;;21.17;100.00;100416.22;5003017;28;28402;-83
2023/04/24 08:59:27;;;;;;;;;15.00;13.00;;;;;21.54;100.00;100408.66;5020427;28;29488;-83
2023/04/24 09:05:18;;;;;;;;;15.00;12.00;;;;;21.56;100.00;100417.59;5029182;28;27945;-84
2023/04/24 09:07:49;;;;;;;;;23.00;19.33;;;;;21.31;100.00;100421.16;5000428;28;28474;-84
2023/04/24 09:10:15;;;;;;;;;18.00;18.00;;;;;21.04;100.00;100431.09;5004968;28;30262;-84
2023/04/24 09:12:44;;;;;;;;;20.00;19.67;;;;;21.68;100.00;100425.25;5017665;28;27947;-84
2023/04/24 09:15:10;;;;;;;;;17.00;14.67;;;;;21.33;100.00;100424.69;5022263;28;28527;-84
2023/04/24 09:18:18;;;;;;;;;20.00;20.00;;;;;22.18;100.00;100422.44;5023843;28;28490;-84
2023/04/24 09:21:06;;;;;;;;;16.00;16.00;;;;;22.18;100.00;100425.16;5016998;28;30107;-84
2023/04/24 09:23:32;;;;;;;;;19.00;18.00;;;;;21.69;100.00;100418.00;5010250;28;28836;-84
2023/04/24 09:26:00;;;;;;;;;20.67;20.33;;;;;21.86;100.00;100433.66;5004540;28;28435;-82
2023/04/24 09:28:31;;;;;;;;;19.33;18.00;;;;;21.91;100.00;100429.78;5001084;28;27893;-83
2023/04/24 09:31:14;;;;;;;;;22.00;19.67;;;;;22.17;100.00;100436.91;4998303;28;30366;-83
2023/04/24 09:33:40;;;;;;;;;18.00;18.00;;;;;21.42;100.00;100437.00;5016828;28;28701;-84
2023/04/24 09:36:06;;;;;;;;;18.00;17.67;;;;;21.48;100.00;100446.75;5018293;28;29116;-83
2023/04/24 09:38:39;;;;;;;;;19.67;19.00;;;;;22.09;100.00;100443.59;5020648;28;28448;-83
2023/04/24 09:41:07;;;;;;;;;19.00;19.00;;;;;21.86;100.00;100444.47;5021196;28;28078;-83
2023/04/24 09:43:33;;;;;;;;;23.00;19.00;;;;;21.48;100.00;100446.75;5012405;28;28360;-83
2023/04/24 09:46:05;;;;;;;;;22.33;19.67;;;;;22.13;100.00;100445.22;5012576;28;28609;-82
2023/04/24 09:48:37;;;;;;;;;19.33;19.33;;;;;22.27;100.00;100456.44;5008229;28;28392;-84
2023/04/24 09:51:06;;;;;;;;;19.33;18.33;;;;;22.08;100.00;100453.53;5011395;28;29935;-85
2023/04/24 09:53:35;;;;;;;;;19.67;18.67;;;;;22.43;100.00;100445.88;5010227;28;29356;-85
2023/04/24 09:56:07;;;;;;;;;19.67;16.00;;;;;22.56;100.00;100449.88;5053804;28;28394;-84
2023/04/24 09:58:50;;;;;;;;;21.00;20.00;;;;;22.94;100.00;100450.13;5027966;28;27846;-84
2023/04/24 10:01:38;;;;;;;;;19.67;17.67;;;;;23.14;100.00;100438.47;5036031;28;30084;-84
2023/04/24 10:04:04;;;;;;;;;18.67;16.00;;;;;22.60;100.00;100425.34;5035965;28;28401;-84
2023/04/24 10:06:51;;;;;;;;;23.67;19.67;;;;;23.47;100.00;100424.38;5041848;28;27947;-84
2023/04/24 10:09:20;;;;;;;;;18.67;18.00;;;;;23.65;100.00;100438.97;5045931;28;27908;-83
2023/04/24 10:15:21;;;;;;;;;20.33;19.33;;;;;23.98;100.00;100441.13;5048774;28;27984;-85
2023/04/24 10:17:53;;;;;;;;;18.67;16.67;;;;;23.56;100.00;100414.94;5010780;28;27934;-83
2023/04/24 10:20:23;;;;;;;;;17.33;17.33;;;;;23.63;95.93;100416.44;5027878;28;28587;-84
2023/04/24 10:22:53;;;;;;;;;22.67;22.67;;;;;23.80;99.94;100439.25;5025923;28;29929;-84
2023/04/24 10:25:36;;;;;;;;;14.67;14.00;;;;;23.69;100.00;100416.16;5045837;28;28366;-84
2023/04/24 10:28:03;;;;;;;;;19.00;16.33;;;;;23.33;100.00;100419.56;5026164;28;28600;-84
2023/04/24 10:30:38;;;;;;;;;18.00;17.00;;;;;23.84;100.00;100441.75;5039850;28;29299;-86
2023/04/24 10:33:06;;;;;;;;;17.00;17.00;;;;;23.84;100.00;100443.59;5044670;28;41574;-83
2023/04/24 10:35:39;;;;;;;;;13.00;12.00;;;;;23.87;100.00;100448.88;5035490;28;43146;-83
2023/04/24 10:38:24;;;;;;;;;13.00;13.00;;;;;24.31;100.00;100454.06;5029414;28;44518;-83
2023/04/24 10:40:50;;;;;;;;;19.67;17.00;;;;;23.56;100.00;100442.97;5011849;28;43820;-83
2023/04/24 10:46:38;;;;;;;;;17.67;14.33;;;;;24.11;100.00;100447.72;5031080;28;44404;-82
2023/04/24 10:49:08;;;;;;;;;14.67;14.00;;;;;24.56;100.00;100445.63;5015072;28;44798;-83
2023/04/24 10:58:04;;;;;;;;;16.33;15.00;;;;;24.51;91.44;100453.16;5003905;23;45263;-82
2023/04/24 11:00:32;;;;;;;;;14.33;14.33;;;;;23.71;95.67;100448.66;4987701;28;45597;-85
2023/04/24 11:03:05;;;;;;;;;14.67;14.67;;;;;24.10;96.14;100426.97;4989812;28;45491;-85
2023/04/24 11:05:53;;;;;;;;;13.67;12.00;;;;;24.52;93.21;100452.16;4983041;28;45219;-85
2023/04/24 11:08:28;;;;;;;;;14.00;14.00;;;;;24.34;98.81;100445.78;4981533;28;45128;-84
2023/04/24 11:10:59;;;;;;;;;16.33;14.67;;;;;24.41;100.00;100441.78;4991375;28;45484;-83
2023/04/24 11:13:27;;;;;;;;;12.67;10.00;;;;;24.10;96.69;100448.69;4992947;28;45560;-83
2023/04/24 11:16:12;;;;;;;;;17.33;13.67;;;;;24.59;97.15;100441.91;4979234;28;45548;-82
2023/04/24 11:18:39;;;;;;;;;16.00;15.00;;;;;23.84;100.00;100438.16;4982864;28;45529;-82
2023/04/24 11:21:18;;;;;;;;;13.67;13.67;;;;;24.48;100.00;100429.69;4984413;28;45689;-82
2023/04/24 11:23:45;;;;;;;;;12.33;12.00;;;;;24.43;100.00;100439.00;4973039;28;45473;-82
2023/04/24 11:26:32;;;;;;;;;18.33;15.00;;;;;24.36;98.86;100435.72;4976131;28;46970;-82
2023/04/24 11:29:10;;;;;;;;;15.33;15.33;;;;;24.54;98.84;100432.13;4993335;28;45452;-83
2023/04/24 11:31:49;;;;;;;;;14.33;13.00;;;;;24.49;97.75;100428.72;4992059;28;45189;-83
2023/04/24 11:34:16;;;;;;;;;14.33;13.67;;;;;24.14;100.00;100434.00;4970964;28;45722;-83